Eikamaru No.2 — JD3056 — position and weather

sailwx.info

Track history (hours):
 
Tides and Currents Weather Stations Pressure Air Temp Water Temp Dewpoint Dewpoint Depression Visibility Wind Speed Wind Dir Waves Ship Positions

Eikamaru No.2

Last reported at 2015-Sep-04 09:33 UTC. Time now 2015-Sep-04 10:27 UTC.
Position N 35°30' E 139°46'.

Length 60 m; draft 3.3 m.

Type: Tanker. MMSI: 431001342.

Date/timePositionNaut miles runAvg speedWind from/ knotsBaromVisibWave heightAir tempDewpointWater temp
2015-Sep-04 09:33N 35°30' E 139°46'0 0.0
2015-Sep-04 08:33N 35°30' E 139°46'0 0.0
2015-Sep-04 07:31N 35°30' E 139°46'0 0.0
2015-Sep-04 06:33N 35°30' E 139°46'0 0.0
2015-Sep-04 05:33N 35°30' E 139°46'0 0.2
2015-Sep-04 04:34N 35°31' E 139°46'10 9.8
2015-Sep-04 03:34N 35°28' E 139°58'1 0.9
2015-Sep-04 02:33N 35°27' E 139°58'6 5.5
2015-Sep-04 01:33N 35°30' E 139°53'6 6.3
2015-Sep-04 00:34N 35°32' E 139°45'0 0.0
2015-Sep-03 23:34N 35°32' E 139°45'1 0.8
2015-Sep-03 22:34N 35°31' E 139°46'3 3.1
2015-Sep-03 21:34N 35°30' E 139°49'0 0.0
2015-Sep-03 20:33N 35°30' E 139°49'0 0.0
2015-Sep-03 19:33N 35°30' E 139°49'6 6.2
2015-Sep-03 18:33N 35°24' E 139°46'1111.5
2015-Sep-03 17:34N 35°12' E 139°47'1211.6
2015-Sep-03 16:34N 35°02' E 139°41'11 0.2
2015-Sep-01 15:17N 34°51' E 139°42'2111.9
2015-Sep-01 13:29N 34°58' E 140°07'62 7.8
2015-Sep-01 05:33N 35°53' E 140°41'0 0.0
2015-Sep-01 04:34N 35°53' E 140°41'0 0.0
2015-Sep-01 03:33N 35°53' E 140°41'0 0.0
2015-Sep-01 02:34N 35°53' E 140°41'0 0.0
2015-Sep-01 01:34N 35°53' E 140°41'0 0.0
2015-Sep-01 00:34N 35°53' E 140°41'0 0.0
2015-Aug-31 23:34N 35°53' E 140°41'5 5.0
2015-Aug-31 22:33N 35°57' E 140°45'1 1.2
2015-Aug-31 21:34N 35°56' E 140°45'1211.7
2015-Aug-31 20:33N 35°46' E 140°53'1110.6
2015-Aug-31 19:33N 35°36' E 140°51'1211.8
2015-Aug-31 18:33N 35°26' E 140°42'1211.8
2015-Aug-31 17:34N 35°17' E 140°33'1211.6
2015-Aug-31 16:31N 35°08' E 140°23'1212.0
2015-Aug-31 15:33N 35°01' E 140°12'1211.3
2015-Aug-31 14:28N 34°55' E 139°59'1010.6
2015-Aug-31 13:33N 34°54' E 139°47'1110.8
2015-Aug-31 12:33N 35°04' E 139°44'1312.5
2015-Aug-31 11:33N 35°17' E 139°45'1010.5
2015-Aug-31 10:33N 35°27' E 139°47'1312.7
2015-Aug-31 09:33N 35°33' E 140°00'5 4.9
2015-Aug-31 08:33N 35°36' E 140°05'0 0.0
2015-Aug-31 07:33N 35°36' E 140°05'0 0.0
2015-Aug-31 06:33N 35°36' E 140°05'9 8.9
2015-Aug-31 05:33N 35°32' E 139°56'9 8.5
2015-Aug-31 04:33N 35°32' E 139°45'0 0.0
2015-Aug-31 03:34N 35°32' E 139°45'0 0.0
2015-Aug-31 02:34N 35°32' E 139°45'0 0.0
2015-Aug-31 01:33N 35°32' E 139°45'0 0.2
2015-Aug-31 00:34N 35°32' E 139°46'4 4.0
2015-Aug-30 23:34N 35°28' E 139°48'5 5.0
2015-Aug-30 22:33N 35°24' E 139°46'1010.2
2015-Aug-30 21:34N 35°14' E 139°47'1211.9
2015-Aug-30 20:32N 35°02' E 139°42'6011.4
2015-Aug-30 15:13N 34°33' E 138°37'65 2.0
2015-Aug-29 07:04N 35°09' E 139°44'610.7
2015-Aug-29 06:33N 35°15' E 139°46'1010.1
2015-Aug-29 05:33N 35°24' E 139°43'7 7.1
2015-Aug-29 04:33N 35°31' E 139°45'0 0.0
2015-Aug-29 03:33N 35°31' E 139°45'0 0.0
2015-Aug-29 02:33N 35°31' E 139°45'0 0.0
2015-Aug-29 01:33N 35°31' E 139°45'0 0.0
2015-Aug-29 00:33N 35°31' E 139°45'0 0.0
2015-Aug-28 23:33N 35°31' E 139°45'0 0.0
2015-Aug-28 22:33N 35°31' E 139°45'5 4.7
2015-Aug-28 21:33N 35°30' E 139°51'0 0.1
2015-Aug-28 20:33N 35°30' E 139°50'0 0.0
2015-Aug-28 19:33N 35°30' E 139°50'0 0.0
2015-Aug-28 18:33N 35°30' E 139°50'0 0.0
2015-Aug-28 17:33N 35°30' E 139°50'0 0.0
2015-Aug-28 16:33N 35°30' E 139°50'0 0.0
2015-Aug-28 15:33N 35°30' E 139°50'0 0.0
2015-Aug-28 14:33N 35°30' E 139°50'0 0.0
2015-Aug-28 13:33N 35°30' E 139°50'0 0.0
2015-Aug-28 12:33N 35°30' E 139°50'0 0.0
2015-Aug-28 11:33N 35°30' E 139°50'0 0.0
2015-Aug-28 10:33N 35°30' E 139°50'0 0.0
2015-Aug-28 09:33N 35°30' E 139°50'0 0.0
2015-Aug-28 08:33N 35°30' E 139°50'2 2.0
2015-Aug-28 07:33N 35°30' E 139°48'3 2.7
2015-Aug-28 06:33N 35°32' E 139°45'0 0.0
2015-Aug-28 05:33N 35°32' E 139°45'0 0.0
2015-Aug-28 04:33N 35°32' E 139°45'0 0.0
2015-Aug-28 03:33N 35°32' E 139°45'0 0.0
2015-Aug-28 02:33N 35°32' E 139°45'4 4.3
2015-Aug-28 01:33N 35°31' E 139°50'0 0.0
2015-Aug-28 00:33N 35°31' E 139°50'0 0.0
2015-Aug-27 23:33N 35°31' E 139°50'0 0.0
2015-Aug-27 22:33N 35°31' E 139°50'0 0.0
2015-Aug-27 21:33N 35°31' E 139°50'0 0.0
2015-Aug-27 20:33N 35°31' E 139°50'0 0.0
2015-Aug-27 19:33N 35°31' E 139°50'0 0.0
2015-Aug-27 18:33N 35°31' E 139°50'0 0.0
2015-Aug-27 17:33N 35°31' E 139°50'0 0.0
2015-Aug-27 16:33N 35°31' E 139°50'0 0.1
2015-Aug-27 15:33N 35°31' E 139°50'0 0.0
2015-Aug-27 14:33N 35°31' E 139°50'0 0.0
2015-Aug-27 13:33N 35°31' E 139°50'0 0.0
2015-Aug-27 12:33N 35°31' E 139°50'0 0.0
2015-Aug-27 11:33N 35°31' E 139°50'0 0.0
2015-Aug-27 10:33N 35°31' E 139°50'0 0.0
2015-Aug-27 09:33N 35°31' E 139°50'0 0.0
2015-Aug-27 08:33N 35°31' E 139°50'9 8.9
2015-Aug-27 07:33N 35°23' E 139°46'1010.0
2015-Aug-27 06:33N 35°13' E 139°47'  
Track history (hours):
 
Tides and Currents Weather Stations Pressure Air Temp Water Temp Dewpoint Dewpoint Depression Visibility Wind Speed Wind Dir Waves Ship Positions

Eikamaru No.2

Last reported at 2015-Sep-04 09:33 UTC. Time now 2015-Sep-04 10:27 UTC.
Position N 35°30' E 139°46'.

Length 60 m; draft 3.3 m.

Type: Tanker. MMSI: 431001342.

Date/timePositionNaut miles runAvg speedWind from/ knotsBaromVisibWave heightAir tempDewpointWater temp
2015-Sep-04 09:33N 35°30' E 139°46'0 0.0
2015-Sep-04 08:33N 35°30' E 139°46'0 0.0
2015-Sep-04 07:31N 35°30' E 139°46'0 0.0
2015-Sep-04 06:33N 35°30' E 139°46'0 0.0
2015-Sep-04 05:33N 35°30' E 139°46'0 0.2
2015-Sep-04 04:34N 35°31' E 139°46'10 9.8
2015-Sep-04 03:34N 35°28' E 139°58'1 0.9
2015-Sep-04 02:33N 35°27' E 139°58'6 5.5
2015-Sep-04 01:33N 35°30' E 139°53'6 6.3
2015-Sep-04 00:34N 35°32' E 139°45'0 0.0
2015-Sep-03 23:34N 35°32' E 139°45'1 0.8
2015-Sep-03 22:34N 35°31' E 139°46'3 3.1
2015-Sep-03 21:34N 35°30' E 139°49'0 0.0
2015-Sep-03 20:33N 35°30' E 139°49'0 0.0
2015-Sep-03 19:33N 35°30' E 139°49'6 6.2
2015-Sep-03 18:33N 35°24' E 139°46'1111.5
2015-Sep-03 17:34N 35°12' E 139°47'1211.6
2015-Sep-03 16:34N 35°02' E 139°41'11 0.2
2015-Sep-01 15:17N 34°51' E 139°42'2111.9
2015-Sep-01 13:29N 34°58' E 140°07'62 7.8
2015-Sep-01 05:33N 35°53' E 140°41'0 0.0
2015-Sep-01 04:34N 35°53' E 140°41'0 0.0
2015-Sep-01 03:33N 35°53' E 140°41'0 0.0
2015-Sep-01 02:34N 35°53' E 140°41'0 0.0
2015-Sep-01 01:34N 35°53' E 140°41'0 0.0
2015-Sep-01 00:34N 35°53' E 140°41'0 0.0
2015-Aug-31 23:34N 35°53' E 140°41'5 5.0
2015-Aug-31 22:33N 35°57' E 140°45'1 1.2
2015-Aug-31 21:34N 35°56' E 140°45'1211.7
2015-Aug-31 20:33N 35°46' E 140°53'1110.6
2015-Aug-31 19:33N 35°36' E 140°51'1211.8
2015-Aug-31 18:33N 35°26' E 140°42'1211.8
2015-Aug-31 17:34N 35°17' E 140°33'1211.6
2015-Aug-31 16:31N 35°08' E 140°23'1212.0
2015-Aug-31 15:33N 35°01' E 140°12'1211.3
2015-Aug-31 14:28N 34°55' E 139°59'1010.6
2015-Aug-31 13:33N 34°54' E 139°47'1110.8
2015-Aug-31 12:33N 35°04' E 139°44'1312.5
2015-Aug-31 11:33N 35°17' E 139°45'1010.5
2015-Aug-31 10:33N 35°27' E 139°47'1312.7
2015-Aug-31 09:33N 35°33' E 140°00'5 4.9
2015-Aug-31 08:33N 35°36' E 140°05'0 0.0
2015-Aug-31 07:33N 35°36' E 140°05'0 0.0
2015-Aug-31 06:33N 35°36' E 140°05'9 8.9
2015-Aug-31 05:33N 35°32' E 139°56'9 8.5
2015-Aug-31 04:33N 35°32' E 139°45'0 0.0
2015-Aug-31 03:34N 35°32' E 139°45'0 0.0
2015-Aug-31 02:34N 35°32' E 139°45'0 0.0
2015-Aug-31 01:33N 35°32' E 139°45'0 0.2
2015-Aug-31 00:34N 35°32' E 139°46'4 4.0
2015-Aug-30 23:34N 35°28' E 139°48'5 5.0
2015-Aug-30 22:33N 35°24' E 139°46'1010.2
2015-Aug-30 21:34N 35°14' E 139°47'1211.9
2015-Aug-30 20:32N 35°02' E 139°42'6011.4
2015-Aug-30 15:13N 34°33' E 138°37'65 2.0
2015-Aug-29 07:04N 35°09' E 139°44'610.7
2015-Aug-29 06:33N 35°15' E 139°46'1010.1
2015-Aug-29 05:33N 35°24' E 139°43'7 7.1
2015-Aug-29 04:33N 35°31' E 139°45'0 0.0
2015-Aug-29 03:33N 35°31' E 139°45'0 0.0
2015-Aug-29 02:33N 35°31' E 139°45'0 0.0
2015-Aug-29 01:33N 35°31' E 139°45'0 0.0
2015-Aug-29 00:33N 35°31' E 139°45'0 0.0
2015-Aug-28 23:33N 35°31' E 139°45'0 0.0
2015-Aug-28 22:33N 35°31' E 139°45'5 4.7
2015-Aug-28 21:33N 35°30' E 139°51'0 0.1
2015-Aug-28 20:33N 35°30' E 139°50'0 0.0
2015-Aug-28 19:33N 35°30' E 139°50'0 0.0
2015-Aug-28 18:33N 35°30' E 139°50'0 0.0
2015-Aug-28 17:33N 35°30' E 139°50'0 0.0
2015-Aug-28 16:33N 35°30' E 139°50'0 0.0
2015-Aug-28 15:33N 35°30' E 139°50'0 0.0
2015-Aug-28 14:33N 35°30' E 139°50'0 0.0
2015-Aug-28 13:33N 35°30' E 139°50'0 0.0
2015-Aug-28 12:33N 35°30' E 139°50'0 0.0
2015-Aug-28 11:33N 35°30' E 139°50'0 0.0
2015-Aug-28 10:33N 35°30' E 139°50'0 0.0
2015-Aug-28 09:33N 35°30' E 139°50'0 0.0
2015-Aug-28 08:33N 35°30' E 139°50'2 2.0
2015-Aug-28 07:33N 35°30' E 139°48'3 2.7
2015-Aug-28 06:33N 35°32' E 139°45'0 0.0
2015-Aug-28 05:33N 35°32' E 139°45'0 0.0
2015-Aug-28 04:33N 35°32' E 139°45'0 0.0
2015-Aug-28 03:33N 35°32' E 139°45'0 0.0
2015-Aug-28 02:33N 35°32' E 139°45'4 4.3
2015-Aug-28 01:33N 35°31' E 139°50'0 0.0
2015-Aug-28 00:33N 35°31' E 139°50'0 0.0
2015-Aug-27 23:33N 35°31' E 139°50'0 0.0
2015-Aug-27 22:33N 35°31' E 139°50'0 0.0
2015-Aug-27 21:33N 35°31' E 139°50'0 0.0
2015-Aug-27 20:33N 35°31' E 139°50'0 0.0
2015-Aug-27 19:33N 35°31' E 139°50'0 0.0
2015-Aug-27 18:33N 35°31' E 139°50'0 0.0
2015-Aug-27 17:33N 35°31' E 139°50'0 0.0
2015-Aug-27 16:33N 35°31' E 139°50'0 0.1
2015-Aug-27 15:33N 35°31' E 139°50'0 0.0
2015-Aug-27 14:33N 35°31' E 139°50'0 0.0
2015-Aug-27 13:33N 35°31' E 139°50'0 0.0
2015-Aug-27 12:33N 35°31' E 139°50'0 0.0
2015-Aug-27 11:33N 35°31' E 139°50'0 0.0
2015-Aug-27 10:33N 35°31' E 139°50'0 0.0
2015-Aug-27 09:33N 35°31' E 139°50'0 0.0
2015-Aug-27 08:33N 35°31' E 139°50'9 8.9
2015-Aug-27 07:33N 35°23' E 139°46'1010.0
2015-Aug-27 06:33N 35°13' E 139°47'  

Dump ship's entire track history